Time;durP1;ratioP1;P1;durP2;ratioP2;P2;SDS_P1;SDS_P2;PMS_P1;PMS_P2;Temp;Humidity;BMP_temperature;BMP_pressure;BME280_temperature;BME280_humidity;BME280_pressure;Samples;Min_cycle;Max_cycle;Signal;HPM_P1;HPM_P2
2022/09/29 00:00:13;;;;;;;1999.90;999.90;;;7.40;99.90;;;;;;5063240;28;20440;-65
2022/09/29 00:02:40;;;;;;;1999.90;999.90;;;7.30;99.90;;;;;;5050006;28;20444;-64
2022/09/29 00:05:08;;;;;;;1999.90;999.90;;;7.40;99.90;;;;;;5050189;28;20801;-65
2022/09/29 00:07:34;;;;;;;1999.90;999.90;;;7.40;99.90;;;;;;5049944;28;20443;-65
2022/09/29 00:10:01;;;;;;;1999.90;999.90;;;7.50;99.90;;;;;;5050138;28;20459;-65
2022/09/29 00:12:29;;;;;;;1999.90;999.90;;;7.50;99.90;;;;;;5049594;28;20454;-65
2022/09/29 00:14:56;;;;;;;1999.90;999.90;;;7.60;99.90;;;;;;5050026;28;20470;-65
2022/09/29 00:17:23;;;;;;;1999.90;999.90;;;7.60;99.90;;;;;;5049840;28;20444;-65
2022/09/29 00:19:50;;;;;;;1999.90;999.90;;;7.60;99.90;;;;;;5050119;28;20471;-64
2022/09/29 00:22:17;;;;;;;1999.90;999.90;;;7.60;99.90;;;;;;5049587;28;20436;-65
2022/09/29 00:24:43;;;;;;;1999.90;999.90;;;7.60;99.90;;;;;;5049632;28;20471;-65
2022/09/29 00:27:10;;;;;;;1999.90;999.90;;;7.60;99.90;;;;;;5050046;28;20452;-66
2022/09/29 00:29:38;;;;;;;1999.90;999.90;;;7.50;99.90;;;;;;5049588;28;20926;-65
2022/09/29 00:32:05;;;;;;;1999.90;999.90;;;7.50;99.90;;;;;;5049840;28;20761;-64
2022/09/29 00:34:31;;;;;;;1999.90;999.90;;;7.50;99.90;;;;;;5049782;28;20845;-66
2022/09/29 00:36:58;;;;;;;1999.90;999.90;;;7.60;99.90;;;;;;5049568;28;20480;-66
2022/09/29 00:39:25;;;;;;;1999.90;999.90;;;7.60;99.90;;;;;;5049697;28;20440;-66
2022/09/29 00:41:52;;;;;;;1999.90;999.90;;;7.60;99.90;;;;;;5046226;28;20942;-65
2022/09/29 00:45:01;;;;;;;1999.90;999.90;;;7.60;99.90;;;;;;5048808;28;20834;-65
2022/09/29 00:47:29;;;;;;;1999.90;999.90;;;7.70;99.90;;;;;;5006053;28;20535;-65
2022/09/29 00:50:00;;;;;;;1999.90;999.90;;;7.70;99.90;;;;;;5032670;28;20448;-65
2022/09/29 00:52:29;;;;;;;1999.90;999.90;;;7.80;99.90;;;;;;5049305;28;20444;-65
2022/09/29 00:55:00;;;;;;;1999.90;999.90;;;7.90;99.90;;;;;;5049091;28;20460;-65
2022/09/29 00:57:32;;;;;;;1999.90;999.90;;;7.90;99.90;;;;;;5049452;28;20482;-65
2022/09/29 01:00:06;;;;;;;1999.90;999.90;;;7.90;99.90;;;;;;5049529;28;20436;-66
2022/09/29 01:02:35;;;;;;;1999.90;999.90;;;7.90;99.90;;;;;;5048910;28;20902;-65
2022/09/29 01:05:06;;;;;;;1999.90;999.90;;;7.90;99.90;;;;;;5048989;28;20464;-65
2022/09/29 01:07:33;;;;;;;1999.90;999.90;;;7.90;99.90;;;;;;5049419;28;20774;-65
2022/09/29 01:10:01;;;;;;;1999.90;999.90;;;7.90;99.90;;;;;;5049575;28;20457;-65
2022/09/29 01:12:27;;;;;;;1999.90;999.90;;;8.00;99.90;;;;;;5048859;28;20458;-65
2022/09/29 01:14:55;;;;;;;1999.90;999.90;;;8.00;99.90;;;;;;5049486;28;20471;-65
2022/09/29 01:17:24;;;;;;;1999.90;999.90;;;8.00;99.90;;;;;;5049114;28;20482;-65
2022/09/29 01:20:01;;;;;;;1999.90;999.90;;;8.00;99.90;;;;;;5049203;28;20456;-65
2022/09/29 01:22:51;;;;;;;1999.90;999.90;;;8.00;99.90;;;;;;5049019;28;20444;-65
2022/09/29 01:25:43;;;;;;;1999.90;999.90;;;8.00;99.90;;;;;;5049456;28;20464;-65
2022/09/29 01:28:30;;;;;;;1999.90;999.90;;;8.00;99.90;;;;;;5029173;28;20449;-65
2022/09/29 01:31:13;;;;;;;1999.90;999.90;;;8.00;99.90;;;;;;5029440;28;20448;-65
2022/09/29 01:33:47;;;;;;;1999.90;999.90;;;8.10;99.90;;;;;;5032056;28;20518;-65
2022/09/29 01:36:29;;;;;;;1999.90;999.90;;;8.10;99.90;;;;;;5049095;28;20486;-65
2022/09/29 01:39:17;;;;;;;1999.90;999.90;;;8.10;99.90;;;;;;5049299;28;20448;-65
2022/09/29 01:41:49;;;;;;;1999.90;999.90;;;8.00;99.90;;;;;;5048877;28;20440;-65
2022/09/29 01:44:22;;;;;;;1999.90;999.90;;;8.00;99.90;;;;;;5048997;28;20470;-66
2022/09/29 01:46:55;;;;;;;1999.90;999.90;;;8.00;99.90;;;;;;5049131;28;20467;-65
2022/09/29 01:49:25;;;;;;;1999.90;999.90;;;8.10;99.90;;;;;;5048707;28;20444;-66
2022/09/29 01:51:55;;;;;;;1999.90;999.90;;;8.10;99.90;;;;;;5048911;28;20770;-65
2022/09/29 01:54:27;;;;;;;1999.90;999.90;;;8.20;99.90;;;;;;5048650;28;20981;-64
2022/09/29 01:57:00;;;;;;;1999.90;999.90;;;8.20;99.90;;;;;;5049252;28;20874;-66
2022/09/29 01:59:36;;;;;;;1999.90;999.90;;;8.20;99.90;;;;;;5049048;28;20447;-65
2022/09/29 02:02:10;;;;;;;1999.90;999.90;;;8.20;99.90;;;;;;5061224;28;21003;-65
2022/09/29 02:04:41;;;;;;;1999.90;999.90;;;8.20;99.90;;;;;;5052488;28;20467;-65
2022/09/29 02:07:14;;;;;;;1999.90;999.90;;;8.10;99.90;;;;;;5052602;28;20436;-65
2022/09/29 02:09:46;;;;;;;1999.90;999.90;;;8.20;99.90;;;;;;5052416;28;20444;-65
2022/09/29 02:12:16;;;;;;;1999.90;999.90;;;8.30;99.90;;;;;;5052068;28;20447;-65
2022/09/29 02:14:47;;;;;;;1999.90;999.90;;;8.40;99.90;;;;;;5052243;28;20977;-65
2022/09/29 02:17:19;;;;;;;1999.90;999.90;;;8.30;99.90;;;;;;5052155;28;20487;-65
2022/09/29 02:19:48;;;;;;;1999.90;999.90;;;8.30;99.90;;;;;;5052035;28;20448;-65
2022/09/29 02:22:15;;;;;;;1999.90;999.90;;;8.40;99.90;;;;;;5051571;28;20444;-65
2022/09/29 02:24:42;;;;;;;1999.90;999.90;;;8.40;99.90;;;;;;5051853;28;20463;-65
2022/09/29 02:27:10;;;;;;;1999.90;999.90;;;8.40;99.90;;;;;;5051927;28;20447;-65
2022/09/29 02:29:38;;;;;;;1999.90;999.90;;;8.40;99.90;;;;;;5051332;28;20978;-66
2022/09/29 02:32:08;;;;;;;1999.90;999.90;;;8.40;99.90;;;;;;5051176;28;20958;-64
2022/09/29 02:34:41;;;;;;;1999.90;999.90;;;8.40;99.90;;;;;;5051628;28;20721;-65
2022/09/29 02:37:21;;;;;;;1999.90;999.90;;;8.40;99.90;;;;;;5048694;28;20487;-66
2022/09/29 02:39:54;;;;;;;1999.90;999.90;;;8.40;99.90;;;;;;5047454;28;20472;-65
2022/09/29 02:42:29;;;;;;;1999.90;999.90;;;8.50;99.90;;;;;;5051358;28;20856;-65
2022/09/29 02:45:15;;;;;;;1999.90;999.90;;;8.50;99.90;;;;;;5051787;28;21019;-65
2022/09/29 02:47:56;;;;;;;1999.90;999.90;;;8.50;99.90;;;;;;5051766;28;20447;-65
2022/09/29 02:50:48;;;;;;;1999.90;999.90;;;8.60;99.90;;;;;;5051500;28;20444;-65
2022/09/29 02:53:24;;;;;;;1999.90;999.90;;;8.70;99.90;;;;;;5040240;28;20440;-65
2022/09/29 02:56:01;;;;;;;1999.90;999.90;;;8.70;99.90;;;;;;5050115;28;20463;-65
2022/09/29 02:58:34;;;;;;;1999.90;999.90;;;8.70;99.90;;;;;;5051153;28;20454;-65
2022/09/29 03:01:02;;;;;;;1999.90;999.90;;;8.60;99.90;;;;;;5051296;28;20455;-65
2022/09/29 03:03:29;;;;;;;1999.90;999.90;;;8.50;99.90;;;;;;5050798;28;20445;-65
2022/09/29 03:05:57;;;;;;;1999.90;999.90;;;8.40;99.90;;;;;;5051362;28;20455;-65
2022/09/29 03:08:24;;;;;;;1999.90;999.90;;;8.50;99.90;;;;;;5051239;28;20444;-65
2022/09/29 03:10:51;;;;;;;1999.90;999.90;;;8.50;99.90;;;;;;5051133;28;20452;-65
2022/09/29 03:13:18;;;;;;;1999.90;999.90;;;8.50;99.90;;;;;;5050549;28;20460;-65
2022/09/29 03:15:45;;;;;;;1999.90;999.90;;;8.50;99.90;;;;;;5050959;28;20464;-65
2022/09/29 03:18:11;;;;;;;1999.90;999.90;;;8.50;99.90;;;;;;5050995;28;20487;-65
2022/09/29 03:20:38;;;;;;;1999.90;999.90;;;8.40;99.90;;;;;;5050789;28;20444;-65
2022/09/29 03:23:06;;;;;;;1999.90;999.90;;;8.40;99.90;;;;;;5051111;28;20440;-65
2022/09/29 03:25:33;;;;;;;1999.90;999.90;;;8.30;99.90;;;;;;5051069;28;20474;-65
2022/09/29 03:28:00;;;;;;;1999.90;999.90;;;8.40;99.90;;;;;;5050792;28;20447;-65
2022/09/29 03:30:26;;;;;;;1999.90;999.90;;;8.40;99.90;;;;;;5050788;28;20447;-64
2022/09/29 03:32:53;;;;;;;1999.90;999.90;;;8.50;99.90;;;;;;5050587;28;20833;-65
2022/09/29 03:35:20;;;;;;;1999.90;999.90;;;8.50;99.90;;;;;;5050392;28;20542;-65
2022/09/29 03:37:47;;;;;;;1999.90;999.90;;;8.50;99.90;;;;;;5050769;28;20488;-65
2022/09/29 03:40:15;;;;;;;1999.90;999.90;;;8.40;99.90;;;;;;5050719;28;20461;-65
2022/09/29 03:42:42;;;;;;;1999.90;999.90;;;8.30;99.90;;;;;;5050311;28;20448;-65
2022/09/29 03:45:09;;;;;;;1999.90;999.90;;;8.30;99.90;;;;;;5050678;28;20464;-65
2022/09/29 03:47:36;;;;;;;1999.90;999.90;;;8.40;99.90;;;;;;5050546;28;20444;-65
2022/09/29 03:50:03;;;;;;;1999.90;999.90;;;8.40;99.90;;;;;;5050325;28;20454;-65
2022/09/29 03:52:29;;;;;;;1999.90;999.90;;;8.30;99.90;;;;;;5050287;28;20440;-63
2022/09/29 03:54:56;;;;;;;1999.90;999.90;;;8.20;99.90;;;;;;5050381;28;20472;-62
2022/09/29 03:57:24;;;;;;;1999.90;999.90;;;8.10;99.90;;;;;;5050275;28;20479;-64
2022/09/29 03:59:52;;;;;;;1999.90;999.90;;;8.00;99.90;;;;;;5050489;28;21140;-62
2022/09/29 04:02:19;;;;;;;1999.90;999.90;;;8.00;99.90;;;;;;5049849;28;20448;-65
2022/09/29 04:04:46;;;;;;;1999.90;999.90;;;7.90;99.90;;;;;;5050431;28;20992;-65
2022/09/29 04:07:13;;;;;;;1999.90;999.90;;;7.70;99.90;;;;;;5050615;28;20987;-65
2022/09/29 04:09:40;;;;;;;1999.90;999.90;;;7.60;99.90;;;;;;5050377;28;20448;-65
2022/09/29 04:12:06;;;;;;;1999.90;999.90;;;7.50;99.90;;;;;;5049843;28;20444;-65
2022/09/29 04:14:34;;;;;;;1999.90;999.90;;;7.50;99.90;;;;;;5050173;28;20456;-65
2022/09/29 04:17:01;;;;;;;1999.90;999.90;;;7.50;99.90;;;;;;5050026;28;20491;-65
2022/09/29 04:19:28;;;;;;;1999.90;999.90;;;7.40;99.90;;;;;;5050245;28;20447;-66
2022/09/29 04:21:55;;;;;;;1999.90;999.90;;;7.40;99.90;;;;;;5049447;28;20812;-65
2022/09/29 04:24:21;;;;;;;1999.90;999.90;;;7.30;99.90;;;;;;5049366;28;20479;-65
2022/09/29 04:26:48;;;;;;;1999.90;999.90;;;7.20;99.90;;;;;;5049822;28;20436;-65
2022/09/29 04:29:15;;;;;;;1999.90;999.90;;;7.20;99.90;;;;;;5049722;28;20444;-65
2022/09/29 04:31:43;;;;;;;1999.90;999.90;;;7.20;99.90;;;;;;5049319;28;21110;-65
2022/09/29 04:34:10;;;;;;;1999.90;999.90;;;7.20;99.90;;;;;;5049178;28;21146;-65
2022/09/29 04:36:36;;;;;;;1999.90;999.90;;;7.20;99.90;;;;;;5049183;28;20444;-65
2022/09/29 04:39:04;;;;;;;1999.90;999.90;;;7.20;99.90;;;;;;5049464;28;20907;-64
2022/09/29 04:41:33;;;;;;;1999.90;999.90;;;7.30;99.90;;;;;;5046163;28;20464;-64
2022/09/29 04:44:01;;;;;;;1999.90;999.90;;;7.30;99.90;;;;;;5048071;28;20510;-62
2022/09/29 04:46:28;;;;;;;1999.90;999.90;;;7.30;99.90;;;;;;5049539;28;20479;-67
2022/09/29 04:48:56;;;;;;;1999.90;999.90;;;7.30;99.90;;;;;;5049420;28;20463;-66
2022/09/29 04:51:23;;;;;;;1999.90;999.90;;;7.20;99.90;;;;;;5049179;28;20440;-66
2022/09/29 04:53:52;;;;;;;1999.90;999.90;;;7.20;99.90;;;;;;5049527;28;20510;-65
2022/09/29 04:56:19;;;;;;;1999.90;999.90;;;7.20;99.90;;;;;;5049437;28;20476;-67
2022/09/29 04:58:45;;;;;;;1999.90;999.90;;;7.20;99.90;;;;;;5047548;28;20484;-66
2022/09/29 05:01:12;;;;;;;1999.90;999.90;;;7.10;99.90;;;;;;5041327;28;20448;-66
2022/09/29 05:03:39;;;;;;;1999.90;999.90;;;7.10;99.90;;;;;;5042012;28;20465;-65
2022/09/29 05:06:08;;;;;;;1999.90;999.90;;;7.10;99.90;;;;;;5041077;28;20836;-66
2022/09/29 05:08:35;;;;;;;1999.90;999.90;;;7.10;99.90;;;;;;5044578;28;20447;-65
2022/09/29 05:11:05;;;;;;;1999.90;999.90;;;7.10;99.90;;;;;;5046075;28;20449;-66
2022/09/29 05:13:32;;;;;;;1999.90;999.90;;;7.20;99.90;;;;;;5037566;28;20475;-64
2022/09/29 05:15:59;;;;;;;1999.90;999.90;;;7.20;99.90;;;;;;5034863;28;20448;-65
2022/09/29 05:18:27;;;;;;;1999.90;999.90;;;7.20;99.90;;;;;;5045244;28;20495;-65
2022/09/29 05:20:54;;;;;;;1999.90;999.90;;;7.10;99.90;;;;;;5047113;28;20444;-65
2022/09/29 05:23:22;;;;;;;1999.90;999.90;;;7.10;99.90;;;;;;5048371;28;20448;-65
2022/09/29 05:25:49;;;;;;;1999.90;999.90;;;7.10;99.90;;;;;;5048247;28;20468;-66
2022/09/29 05:28:16;;;;;;;1999.90;999.90;;;7.10;99.90;;;;;;5049108;28;20970;-65
2022/09/29 05:30:43;;;;;;;1999.90;999.90;;;7.20;99.90;;;;;;5048099;28;20448;-65
2022/09/29 05:33:10;;;;;;;1999.90;999.90;;;7.10;99.90;;;;;;5048903;28;20460;-66
2022/09/29 05:35:37;;;;;;;1999.90;999.90;;;7.10;99.90;;;;;;5049171;28;20468;-66
2022/09/29 05:38:04;;;;;;;1999.90;999.90;;;7.10;99.90;;;;;;5052742;28;21008;-65
2022/09/29 05:40:32;;;;;;;1999.90;999.90;;;7.10;99.90;;;;;;5053242;28;20455;-65
2022/09/29 05:42:59;;;;;;;1999.90;999.90;;;7.10;99.90;;;;;;5052674;28;20897;-65
2022/09/29 05:45:26;;;;;;;1999.90;999.90;;;7.10;99.90;;;;;;5053012;28;20468;-65
2022/09/29 05:47:53;;;;;;;1999.90;999.90;;;7.00;99.90;;;;;;5052815;28;21131;-65
2022/09/29 05:50:22;;;;;;;1999.90;999.90;;;7.10;99.90;;;;;;5052878;28;20451;-65
2022/09/29 05:52:50;;;;;;;1999.90;999.90;;;7.10;99.90;;;;;;5052495;28;20448;-65
2022/09/29 05:55:17;;;;;;;1999.90;999.90;;;7.20;99.90;;;;;;5052920;28;20474;-66
2022/09/29 05:57:48;;;;;;;1999.90;999.90;;;7.20;99.90;;;;;;5052524;28;20498;-65
2022/09/29 06:00:15;;;;;;;1999.90;999.90;;;7.10;99.90;;;;;;5052734;28;20440;-65
2022/09/29 06:02:41;;;;;;;1999.90;999.90;;;7.10;99.90;;;;;;5052475;28;20452;-66
2022/09/29 06:05:08;;;;;;;1999.90;999.90;;;7.20;99.90;;;;;;5052605;28;20475;-66
2022/09/29 06:07:35;;;;;;;1999.90;999.90;;;7.30;99.90;;;;;;5052902;28;20898;-66
2022/09/29 06:10:02;;;;;;;1999.90;999.90;;;7.30;99.90;;;;;;5052809;28;20439;-65
2022/09/29 06:12:33;;;;;;;1999.90;999.90;;;7.30;99.90;;;;;;5052043;28;20554;-66
2022/09/29 06:15:01;;;;;;;1999.90;999.90;;;7.40;99.90;;;;;;5052703;28;20479;-66
2022/09/29 06:17:29;;;;;;;1999.90;999.90;;;7.40;99.90;;;;;;5051480;28;20575;-65
2022/09/29 06:19:55;;;;;;;1999.90;999.90;;;7.60;99.90;;;;;;5052328;28;20975;-66
2022/09/29 06:22:22;;;;;;;1999.90;999.90;;;7.80;99.90;;;;;;5052252;28;20436;-66
2022/09/29 06:24:49;;;;;;;1999.90;999.90;;;7.90;99.90;;;;;;5052136;28;20459;-65
2022/09/29 06:27:16;;;;;;;1999.90;999.90;;;7.90;99.90;;;;;;5052134;28;20440;-64
2022/09/29 06:29:43;;;;;;;1999.90;999.90;;;8.00;99.90;;;;;;5052030;28;20444;-65
2022/09/29 06:32:11;;;;;;;1999.90;999.90;;;8.10;99.90;;;;;;5051776;28;20793;-64
2022/09/29 06:37:33;;;;;;;1999.90;999.90;;;8.30;99.90;;;;;;5052143;28;20467;-64
2022/09/29 06:37:38;;;;;;;1999.90;999.90;;;8.50;99.90;;;;;;5052041;28;20510;-64
2022/09/29 06:40:07;;;;;;;1999.90;999.90;;;8.70;99.90;;;;;;5052090;28;20436;-63
2022/09/29 06:42:34;;;;;;;1999.90;999.90;;;8.80;99.90;;;;;;5051470;28;20440;-64
2022/09/29 06:45:01;;;;;;;1999.90;999.90;;;8.80;99.90;;;;;;5051782;28;20471;-64
2022/09/29 06:47:29;;;;;;;1999.90;999.90;;;8.90;99.90;;;;;;5051181;28;20440;-64
2022/09/29 06:49:57;;;;;;;1999.90;999.90;;;9.00;99.90;;;;;;5051815;28;20483;-64
2022/09/29 06:52:23;;;;;;;1999.90;999.90;;;9.00;99.90;;;;;;5051480;28;20459;-64
2022/09/29 06:54:50;;;;;;;1999.90;999.90;;;9.00;99.90;;;;;;5051736;28;20475;-64
2022/09/29 06:57:17;;;;;;;1999.90;999.90;;;9.10;99.90;;;;;;5051272;28;20450;-64
2022/09/29 06:59:44;;;;;;;1999.90;999.90;;;9.10;99.90;;;;;;5051740;28;20514;-65
2022/09/29 07:02:11;;;;;;;1999.90;999.90;;;9.20;99.90;;;;;;5051207;28;20436;-64
2022/09/29 07:04:40;;;;;;;1999.90;999.90;;;9.30;99.90;;;;;;5051548;28;20982;-64
2022/09/29 07:07:06;;;;;;;1999.90;999.90;;;9.50;99.90;;;;;;5051152;28;20455;-64
2022/09/29 07:09:33;;;;;;;1999.90;999.90;;;9.60;99.90;;;;;;5050995;28;20451;-64
2022/09/29 07:12:01;;;;;;;1999.90;999.90;;;9.70;99.90;;;;;;5050597;28;20448;-64
2022/09/29 07:14:27;;;;;;;1999.90;999.90;;;9.80;99.90;;;;;;5051420;28;20459;-65
2022/09/29 07:16:55;;;;;;;1999.90;999.90;;;10.00;99.90;;;;;;5051272;28;20452;-64
2022/09/29 07:19:21;;;;;;;1999.90;999.90;;;10.10;99.90;;;;;;5051076;28;20483;-65
2022/09/29 07:21:50;;;;;;;1999.90;999.90;;;10.30;99.90;;;;;;5050858;28;20448;-64
2022/09/29 07:24:17;;;;;;;1999.90;999.90;;;10.40;99.90;;;;;;5050723;28;21096;-64
2022/09/29 07:26:44;;;;;;;1999.90;999.90;;;10.70;99.90;;;;;;5050976;28;20993;-63
2022/09/29 07:29:11;;;;;;;1999.90;999.90;;;10.80;99.90;;;;;;5050992;28;20440;-65
2022/09/29 07:31:40;;;;;;;1999.90;999.90;;;10.90;99.90;;;;;;5050964;28;20938;-64
2022/09/29 07:34:06;;;;;;;1999.90;999.90;;;10.90;99.90;;;;;;5050779;28;20463;-64
2022/09/29 07:36:37;;;;;;;1999.90;999.90;;;10.80;99.90;;;;;;5050817;28;20448;-65
2022/09/29 07:39:05;;;;;;;1999.90;999.90;;;10.60;99.90;;;;;;5050612;28;20910;-64
2022/09/29 07:41:32;;;;;;;1999.90;999.90;;;10.40;99.90;;;;;;5050564;28;20460;-64
2022/09/29 07:43:59;;;;;;;1999.90;999.90;;;10.30;99.90;;;;;;5050698;28;20470;-64
2022/09/29 07:46:26;;;;;;;1999.90;999.90;;;10.40;99.90;;;;;;5050713;28;20460;-65
2022/09/29 07:48:53;;;;;;;1999.90;999.90;;;10.60;99.90;;;;;;5050634;28;20810;-65
2022/09/29 07:51:20;;;;;;;1999.90;999.90;;;10.80;99.90;;;;;;5050614;28;20465;-65
2022/09/29 07:53:47;;;;;;;1999.90;999.90;;;11.10;99.90;;;;;;5050145;28;20452;-65
2022/09/29 07:56:17;;;;;;;1999.90;999.90;;;11.20;99.90;;;;;;5050578;28;20825;-64
2022/09/29 07:58:44;;;;;;;1999.90;999.90;;;11.30;99.90;;;;;;5050313;28;20482;-64
2022/09/29 08:01:14;;;;;;;1999.90;999.90;;;11.50;99.90;;;;;;5049233;28;20543;-65
2022/09/29 08:03:43;;;;;;;1999.90;999.90;;;11.80;99.90;;;;;;5049297;28;20695;-64
2022/09/29 08:06:10;;;;;;;1999.90;999.90;;;12.00;99.90;;;;;;5050118;28;20444;-65
2022/09/29 08:08:37;;;;;;;1999.90;999.90;;;12.10;99.90;;;;;;5050076;28;20447;-65
2022/09/29 08:11:06;;;;;;;1999.90;999.90;;;12.20;99.90;;;;;;5050192;28;20833;-65
2022/09/29 08:13:35;;;;;;;1999.90;999.90;;;12.30;99.90;;;;;;5050034;28;20576;-65
2022/09/29 08:16:03;;;;;;;1999.90;999.90;;;12.40;99.90;;;;;;5050295;28;20581;-64
2022/09/29 08:18:31;;;;;;;1999.90;999.90;;;12.30;99.90;;;;;;5050058;28;20464;-65
2022/09/29 08:20:58;;;;;;;1999.90;999.90;;;12.50;99.90;;;;;;5050073;28;20505;-65
2022/09/29 08:23:25;;;;;;;1999.90;999.90;;;12.30;99.90;;;;;;5050073;28;20440;-65
2022/09/29 08:25:59;;;;;;;1999.90;999.90;;;12.20;99.90;;;;;;5050075;28;20495;-64
2022/09/29 08:28:26;;;;;;;1999.90;999.90;;;12.20;99.90;;;;;;5050035;28;20828;-64
2022/09/29 08:30:54;;;;;;;1999.90;999.90;;;12.40;99.90;;;;;;5049269;28;20447;-64
2022/09/29 08:33:21;;;;;;;1999.90;999.90;;;12.60;99.90;;;;;;5047128;28;20444;-64
2022/09/29 08:35:55;;;;;;;1999.90;999.90;;;13.00;99.90;;;;;;5049383;28;20474;-65
2022/09/29 08:38:22;;;;;;;1999.90;999.90;;;13.10;99.90;;;;;;5047360;28;21004;-64
2022/09/29 08:40:49;;;;;;;1999.90;999.90;;;13.30;99.90;;;;;;5049454;28;20448;-64
2022/09/29 08:43:20;;;;;;;1999.90;999.90;;;13.00;99.90;;;;;;5049171;28;20455;-64
2022/09/29 08:45:55;;;;;;;1999.90;999.90;;;13.00;99.90;;;;;;5049393;28;20464;-64
2022/09/29 08:48:26;;;;;;;1999.90;999.90;;;13.00;99.90;;;;;;5049823;28;20462;-65
2022/09/29 08:50:57;;;;;;;1999.90;999.90;;;13.40;99.90;;;;;;5049469;28;20451;-63
2022/09/29 08:53:27;;;;;;;1999.90;999.90;;;13.70;99.90;;;;;;5049296;28;20879;-64
2022/09/29 08:55:57;;;;;;;1999.90;999.90;;;13.70;99.90;;;;;;5049206;28;20927;-64
2022/09/29 08:58:23;;;;;;;1999.90;999.90;;;13.70;99.90;;;;;;5049327;28;20537;-64
2022/09/29 09:01:02;;;;;;;1999.90;999.90;;;13.80;99.90;;;;;;5049707;28;20448;-63
2022/09/29 09:03:57;;;;;;;1999.90;999.90;;;13.90;99.90;;;;;;5049627;28;20443;-64
2022/09/29 09:06:31;;;;;;;1999.90;999.90;;;13.90;99.90;;;;;;5049454;28;20439;-65
2022/09/29 09:09:21;;;;;;;1999.90;999.90;;;14.10;99.90;;;;;;5049467;28;20459;-65
2022/09/29 09:12:05;;;;;;;1999.90;999.90;;;14.30;99.90;;;;;;5048544;28;20448;-65
2022/09/29 09:14:53;;;;;;;1999.90;999.90;;;14.60;99.90;;;;;;5053433;28;20459;-69
2022/09/29 09:17:37;;;;;;;1999.90;999.90;;;14.80;99.90;;;;;;5053673;28;20535;-65
2022/09/29 09:20:18;;;;;;;1999.90;999.90;;;14.90;99.90;;;;;;5053567;28;20491;-65
2022/09/29 09:22:53;;;;;;;1999.90;999.90;;;15.00;99.90;;;;;;5053160;28;20487;-65
2022/09/29 09:25:26;;;;;;;1999.90;999.90;;;15.00;99.90;;;;;;5053358;28;20467;-65
2022/09/29 09:28:03;;;;;;;1999.90;999.90;;;15.10;99.90;;;;;;5053338;28;20942;-65
2022/09/29 09:30:37;;;;;;;1999.90;999.90;;;15.30;99.90;;;;;;5053254;28;20448;-66
2022/09/29 09:33:08;;;;;;;1999.90;999.90;;;15.60;99.90;;;;;;5053073;28;20458;-65
2022/09/29 09:35:41;;;;;;;1999.90;999.90;;;15.80;99.90;;;;;;5052999;28;20474;-65
2022/09/29 09:38:15;;;;;;;1999.90;999.90;;;16.10;99.90;;;;;;5053160;28;20444;-64
2022/09/29 09:40:45;;;;;;;1999.90;999.90;;;16.30;99.90;;;;;;5053005;28;20443;-65
2022/09/29 09:43:19;;;;;;;1999.90;999.90;;;16.50;99.90;;;;;;5052659;28;20451;-65
2022/09/29 09:45:49;;;;;;;1999.90;999.90;;;16.60;99.90;;;;;;5053050;28;20463;-65
2022/09/29 09:48:21;;;;;;;1999.90;999.90;;;16.50;99.90;;;;;;5052718;28;20482;-69
2022/09/29 09:50:49;;;;;;;1999.90;999.90;;;16.30;99.90;;;;;;5053011;28;20451;-64
2022/09/29 09:53:24;;;;;;;1999.90;999.90;;;16.40;99.90;;;;;;5052682;28;20444;-66
2022/09/29 09:55:59;;;;;;;1999.90;999.90;;;16.60;99.90;;;;;;5052872;28;20467;-66
2022/09/29 09:58:39;;;;;;;1999.90;999.90;;;16.70;99.90;;;;;;5052563;28;20851;-66
2022/09/29 10:01:07;;;;;;;1999.90;999.90;;;16.60;99.90;;;;;;5052628;28;20440;-66
2022/09/29 10:03:34;;;;;;;1999.90;999.90;;;16.80;99.90;;;;;;5052574;28;20451;-66
2022/09/29 10:06:02;;;;;;;1999.90;999.90;;;16.90;99.90;;;;;;5052738;28;20456;-66
2022/09/29 10:08:37;;;;;;;1999.90;999.90;;;17.10;99.90;;;;;;5052574;28;20441;-66
2022/09/29 10:11:12;;;;;;;1999.90;999.90;;;17.20;99.90;;;;;;5052249;28;20988;-66
2022/09/29 10:13:39;;;;;;;1999.90;999.90;;;17.30;99.90;;;;;;5052224;28;20447;-67
2022/09/29 10:16:12;;;;;;;1999.90;999.90;;;17.40;99.90;;;;;;5052542;28;20869;-67
2022/09/29 10:18:41;;;;;;;1999.90;999.90;;;17.50;99.90;;;;;;5052450;28;20498;-66
2022/09/29 10:21:20;;;;;;;1999.90;999.90;;;17.60;99.90;;;;;;5052139;28;20946;-67
2022/09/29 10:23:51;;;;;;;1999.90;999.90;;;17.80;99.90;;;;;;5050952;28;20440;-66
2022/09/29 10:26:24;;;;;;;1999.90;999.90;;;18.00;99.90;;;;;;5052365;28;20475;-67
2022/09/29 10:28:54;;;;;;;1999.90;999.90;;;18.20;99.90;;;;;;5052349;28;20948;-68
2022/09/29 10:31:23;;;;;;;1999.90;999.90;;;17.90;99.90;;;;;;5052293;28;20444;-66
2022/09/29 10:33:55;;;;;;;1999.90;999.90;;;18.00;99.90;;;;;;5052140;28;20474;-67
2022/09/29 10:36:24;;;;;;;1999.90;999.90;;;18.20;99.90;;;;;;5052412;28;20451;-68
2022/09/29 10:38:52;;;;;;;1999.90;999.90;;;18.20;99.90;;;;;;5052261;28;20480;-67
2022/09/29 10:41:19;;;;;;;1999.90;999.90;;;18.40;99.90;;;;;;5052118;28;20457;-67
2022/09/29 10:43:51;;;;;;;1999.90;999.90;;;18.90;99.90;;;;;;5050898;28;20452;-67
2022/09/29 10:46:49;;;;;;;1999.90;999.90;;;19.30;99.90;;;;;;5051447;28;20527;-69
2022/09/29 10:49:17;;;;;;;1999.90;999.90;;;20.00;99.90;;;;;;5034669;28;20620;-70
2022/09/29 10:51:54;;;;;;;1999.90;999.90;;;20.90;99.90;;;;;;5051020;28;20448;-69
2022/09/29 10:54:25;;;;;;;1999.90;999.90;;;21.70;99.90;;;;;;5051755;28;20529;-69
2022/09/29 10:56:52;;;;;;;1999.90;999.90;;;21.70;98.30;;;;;;5051508;28;20460;-68
2022/09/29 10:59:19;;;;;;;1999.90;999.90;;;21.40;97.20;;;;;;5051691;28;20491;-69
2022/09/29 11:01:49;;;;;;;1999.90;999.90;;;20.50;98.60;;;;;;5051279;28;20498;-70
2022/09/29 11:04:20;;;;;;;1999.90;999.90;;;20.70;99.90;;;;;;5051535;28;20472;-70
2022/09/29 11:06:50;;;;;;;1999.90;999.90;;;21.00;99.90;;;;;;5051476;28;20451;-68
2022/09/29 11:09:35;;;;;;;1999.90;999.90;;;21.50;99.90;;;;;;5051205;28;20968;-70
2022/09/29 11:12:02;;;;;;;1999.90;999.90;;;21.60;98.40;;;;;;5051308;28;20439;-70
2022/09/29 11:14:31;;;;;;;1999.90;999.90;;;21.80;97.90;;;;;;5051097;28;20468;-67
2022/09/29 11:17:00;;;;;;;1999.90;999.90;;;21.90;98.80;;;;;;5051299;28;20475;-68
2022/09/29 11:19:29;;;;;;;1999.90;999.90;;;21.80;96.90;;;;;;5050857;28;20479;-69
2022/09/29 11:22:28;;;;;;;1999.90;999.90;;;21.70;98.90;;;;;;5030849;28;20854;-69
2022/09/29 11:25:30;;;;;;;1999.90;999.90;;;21.10;98.10;;;;;;5031890;28;20532;-69
2022/09/29 11:28:16;;;;;;;1999.90;999.90;;;19.90;97.70;;;;;;5040589;28;20458;-69
2022/09/29 11:30:55;;;;;;;1999.90;999.90;;;19.70;97.80;;;;;;5045779;28;20929;-68
2022/09/29 11:33:31;;;;;;;1999.90;999.90;;;19.60;99.50;;;;;;5049262;28;20961;-69
2022/09/29 11:36:03;;;;;;;1999.90;999.90;;;19.70;99.30;;;;;;5049919;28;20957;-69
2022/09/29 11:39:02;;;;;;;1999.90;999.90;;;19.80;97.40;;;;;;5050523;28;21010;-68
2022/09/29 11:41:45;;;;;;;1999.90;999.90;;;19.50;97.90;;;;;;5050452;28;20455;-68
2022/09/29 11:44:32;;;;;;;1999.90;999.90;;;19.20;98.10;;;;;;5050596;28;20981;-69
2022/09/29 11:47:09;;;;;;;1999.90;999.90;;;19.20;98.10;;;;;;5050781;28;20458;-67
2022/09/29 11:49:46;;;;;;;1999.90;999.90;;;19.20;99.90;;;;;;5050680;28;20455;-69
2022/09/29 11:52:31;;;;;;;1999.90;999.90;;;19.40;99.90;;;;;;5050230;28;20444;-68
2022/09/29 11:55:15;;;;;;;1999.90;999.90;;;19.30;99.70;;;;;;5050603;28;20464;-68
2022/09/29 11:58:01;;;;;;;1999.90;999.90;;;19.50;99.30;;;;;;5050552;28;20534;-69
2022/09/29 12:00:42;;;;;;;1999.90;999.90;;;19.80;98.40;;;;;;5050478;28;20487;-69
2022/09/29 12:03:30;;;;;;;1999.90;999.90;;;20.00;95.70;;;;;;5050427;28;20972;-68
2022/09/29 12:06:22;;;;;;;1999.90;999.90;;;20.20;97.70;;;;;;5050505;28;20878;-68
2022/09/29 12:09:00;;;;;;;1999.90;999.90;;;19.80;96.90;;;;;;5048941;28;20447;-68
2022/09/29 12:11:40;;;;;;;1999.90;999.90;;;19.50;98.20;;;;;;5030162;28;20453;-68
2022/09/29 12:14:13;;;;;;;1999.90;999.90;;;18.50;98.60;;;;;;5029893;28;20483;-68
2022/09/29 12:16:48;;;;;;;1999.90;999.90;;;18.40;99.80;;;;;;5030222;28;20456;-68
2022/09/29 12:19:19;;;;;;;1999.90;999.90;;;18.50;99.90;;;;;;5035589;28;20484;-67
2022/09/29 12:21:49;;;;;;;1999.90;999.90;;;18.70;98.90;;;;;;5049743;28;20852;-68